createdAt,value
2022-08-25T00:01:54.994Z,21.00
2022-08-25T00:04:27.197Z,21.02
2022-08-25T00:07:02.909Z,21.03
2022-08-25T00:09:35.331Z,21.04
2022-08-25T00:12:07.902Z,21.03
2022-08-25T00:14:40.003Z,20.99
2022-08-25T00:17:10.696Z,20.93
2022-08-25T00:19:41.578Z,20.93
2022-08-25T00:22:12.248Z,20.95
2022-08-25T00:24:43.002Z,20.97
2022-08-25T00:27:14.166Z,20.97
2022-08-25T00:29:44.917Z,20.89
2022-08-25T00:32:15.717Z,20.69
2022-08-25T00:34:47.199Z,20.55
2022-08-25T00:37:17.870Z,20.57
2022-08-25T00:39:49.031Z,20.64
2022-08-25T00:42:21.009Z,20.70
2022-08-25T00:44:52.970Z,20.68
2022-08-25T00:47:22.441Z,20.66
2022-08-25T00:49:59.139Z,20.56
2022-08-25T00:52:32.611Z,20.46
2022-08-25T00:55:06.578Z,20.44
2022-08-25T00:57:43.876Z,20.49
2022-08-25T01:00:20.575Z,20.51
2022-08-25T01:02:51.446Z,20.43
2022-08-25T01:05:22.275Z,20.41
2022-08-25T01:07:53.906Z,20.44
2022-08-25T01:10:30.515Z,20.50
2022-08-25T01:13:07.778Z,20.53
2022-08-25T01:15:48.722Z,20.54
2022-08-25T01:18:17.862Z,20.53
2022-08-25T01:20:53.819Z,20.42
2022-08-25T01:23:25.828Z,20.32
2022-08-25T01:26:02.994Z,20.28
2022-08-25T01:28:33.887Z,20.34
2022-08-25T01:31:05.140Z,20.36
2022-08-25T01:33:55.032Z,20.36
2022-08-25T01:36:27.245Z,20.27
2022-08-25T01:38:58.547Z,20.20
2022-08-25T01:41:37.759Z,20.21
2022-08-25T01:44:09.051Z,20.26
2022-08-25T01:46:47.272Z,20.35
2022-08-25T01:49:17.932Z,20.41
2022-08-25T01:51:56.813Z,20.43
2022-08-25T01:54:27.478Z,20.43
2022-08-25T01:56:58.639Z,20.43
2022-08-25T01:59:29.914Z,20.38
2022-08-25T02:02:00.862Z,20.27
2022-08-25T02:04:35.903Z,20.26
2022-08-25T02:07:08.973Z,20.32
2022-08-25T02:09:40.638Z,20.37
2022-08-25T02:12:12.320Z,20.39
2022-08-25T02:14:43.058Z,20.42
2022-08-25T02:17:13.733Z,20.42
2022-08-25T02:19:44.364Z,20.45
2022-08-25T02:22:15.133Z,20.39
2022-08-25T02:24:45.836Z,20.37
2022-08-25T02:27:16.539Z,20.40
2022-08-25T02:29:47.299Z,20.44
2022-08-25T02:32:18.033Z,20.48
2022-08-25T02:34:48.702Z,20.51
2022-08-25T02:37:20.187Z,20.56
2022-08-25T02:39:50.883Z,20.59
2022-08-25T02:42:22.033Z,20.61
2022-08-25T02:44:53.911Z,20.64
2022-08-25T02:47:26.778Z,20.64
2022-08-25T02:49:58.139Z,20.66
2022-08-25T02:52:28.772Z,20.61
2022-08-25T02:54:59.783Z,20.57
2022-08-25T02:57:30.605Z,20.56
2022-08-25T03:00:01.471Z,20.56
2022-08-25T03:02:32.409Z,20.55
2022-08-25T03:05:03.291Z,20.56
2022-08-25T03:07:35.471Z,20.57
2022-08-25T03:10:11.574Z,20.53
2022-08-25T03:12:42.634Z,20.49
2022-08-25T03:15:17.222Z,20.54
2022-08-25T03:17:50.541Z,20.57
2022-08-25T03:20:22.128Z,20.58
2022-08-25T03:22:53.400Z,20.57
2022-08-25T03:25:41.898Z,20.58
2022-08-25T03:28:12.603Z,20.60
2022-08-25T03:30:44.484Z,20.65
2022-08-25T03:33:15.233Z,20.68
2022-08-25T03:35:46.154Z,20.70
2022-08-25T03:38:17.738Z,20.72
2022-08-25T03:40:49.049Z,20.70
2022-08-25T03:43:19.864Z,20.74
2022-08-25T03:45:50.976Z,20.75
2022-08-25T03:48:21.738Z,20.78
2022-08-25T03:50:54.834Z,20.80
2022-08-25T03:53:25.550Z,20.79
2022-08-25T03:55:57.740Z,20.79
2022-08-25T03:58:28.612Z,20.77
2022-08-25T04:01:00.571Z,20.73
2022-08-25T04:03:29.856Z,20.69
2022-08-25T04:06:04.015Z,20.66
2022-08-25T04:08:34.764Z,20.63
2022-08-25T04:11:11.011Z,20.61
2022-08-25T04:13:43.416Z,20.60
2022-08-25T04:16:15.884Z,20.54
2022-08-25T04:18:47.975Z,20.49
2022-08-25T04:21:18.252Z,20.44
2022-08-25T04:23:51.034Z,20.42
2022-08-25T04:26:23.890Z,20.40
2022-08-25T04:28:55.313Z,20.43
2022-08-25T04:31:26.113Z,20.46
2022-08-25T04:33:57.098Z,20.43
2022-08-25T04:36:28.131Z,20.38
2022-08-25T04:38:59.545Z,20.34
2022-08-25T04:41:31.311Z,20.37
2022-08-25T04:44:02.858Z,20.44
2022-08-25T04:46:35.619Z,20.49
2022-08-25T04:49:06.883Z,20.43
2022-08-25T04:51:40.756Z,20.30
2022-08-25T04:54:13.897Z,20.28
2022-08-25T04:56:45.042Z,20.31
2022-08-25T04:59:18.622Z,20.36
2022-08-25T05:01:50.997Z,20.34
2022-08-25T05:04:28.560Z,20.24
2022-08-25T05:06:59.970Z,20.20
2022-08-25T05:09:32.428Z,20.23
2022-08-25T05:12:04.787Z,20.24
2022-08-25T05:14:36.368Z,20.29
2022-08-25T05:17:08.083Z,20.39
2022-08-25T05:19:38.805Z,20.48
2022-08-25T05:22:10.295Z,20.58
2022-08-25T05:24:41.016Z,20.62
2022-08-25T05:27:11.662Z,20.59
2022-08-25T05:29:42.538Z,20.61
2022-08-25T05:32:13.435Z,20.71
2022-08-25T05:34:44.151Z,20.72
2022-08-25T05:37:15.014Z,20.70
2022-08-25T05:39:45.814Z,20.74
2022-08-25T05:42:16.568Z,20.86
2022-08-25T05:44:47.423Z,20.97
2022-08-25T05:47:18.276Z,21.13
2022-08-25T05:49:48.945Z,21.35
2022-08-25T05:52:20.393Z,21.59
2022-08-25T05:54:51.228Z,21.80
2022-08-25T05:57:22.031Z,22.05
2022-08-25T05:59:53.021Z,22.16
2022-08-25T06:02:44.139Z,22.33
2022-08-25T06:05:18.068Z,22.58
2022-08-25T06:07:50.372Z,22.76
2022-08-25T06:10:22.917Z,22.94
2022-08-25T06:12:53.610Z,23.06
2022-08-25T06:15:28.265Z,23.13
2022-08-25T06:18:05.469Z,23.25
2022-08-25T06:20:37.069Z,23.41
2022-08-25T06:23:07.754Z,23.57
2022-08-25T06:25:40.225Z,23.74
2022-08-25T06:28:10.984Z,23.95
2022-08-25T06:30:41.720Z,24.16
2022-08-25T06:33:12.693Z,24.32
2022-08-25T06:35:45.659Z,24.50
2022-08-25T06:38:16.316Z,24.68
2022-08-25T06:40:49.790Z,24.86
2022-08-25T06:43:20.849Z,24.99
2022-08-25T06:45:51.669Z,25.08
2022-08-25T06:48:23.873Z,25.11
2022-08-25T06:50:54.569Z,25.19
2022-08-25T06:53:25.279Z,25.36
2022-08-25T06:56:04.575Z,25.53
2022-08-25T06:58:37.557Z,25.64
2022-08-25T07:01:19.718Z,25.69
2022-08-25T07:03:52.542Z,25.78
2022-08-25T07:06:23.718Z,25.91
2022-08-25T07:08:54.897Z,25.91
2022-08-25T07:11:26.499Z,25.89
2022-08-25T07:13:57.238Z,25.91
2022-08-25T07:16:30.402Z,25.96
2022-08-25T07:19:03.030Z,26.03
2022-08-25T07:21:35.614Z,26.12
2022-08-25T07:24:10.719Z,26.15
2022-08-25T07:26:43.485Z,25.98
2022-08-25T07:29:17.244Z,25.89
2022-08-25T07:31:48.352Z,25.90
2022-08-25T07:34:37.548Z,25.85
2022-08-25T07:37:09.766Z,25.84
2022-08-25T07:39:40.583Z,25.82
2022-08-25T07:42:13.473Z,25.71
2022-08-25T07:44:44.200Z,25.66
2022-08-25T07:47:16.079Z,25.73
2022-08-25T07:49:46.814Z,25.73
2022-08-25T07:52:17.902Z,25.73
2022-08-25T07:54:48.559Z,25.71
2022-08-25T07:57:19.679Z,25.75
2022-08-25T07:59:50.634Z,25.81
2022-08-25T08:02:22.023Z,25.99
2022-08-25T08:04:56.415Z,26.23
2022-08-25T08:07:42.310Z,26.49
2022-08-25T08:13:07.998Z,27.07
2022-08-25T08:15:38.881Z,27.30
2022-08-25T08:18:10.580Z,27.52
2022-08-25T08:20:43.072Z,27.70
2022-08-25T08:23:14.867Z,27.86
2022-08-25T08:25:45.775Z,27.94
2022-08-25T08:28:16.899Z,28.01
2022-08-25T08:30:53.627Z,28.06
2022-08-25T08:33:27.661Z,28.12
2022-08-25T08:36:05.294Z,28.17
2022-08-25T08:38:37.273Z,28.09
2022-08-25T08:42:07.216Z,27.92
2022-08-25T08:44:37.156Z,27.72
2022-08-25T08:47:19.958Z,27.56
2022-08-25T08:50:03.961Z,27.49
2022-08-25T08:52:44.013Z,27.47
2022-08-25T08:55:24.127Z,27.54
2022-08-25T08:57:56.600Z,27.50
2022-08-25T09:00:32.696Z,27.49
2022-08-25T09:03:08.974Z,27.45
2022-08-25T09:05:48.427Z,27.36
2022-08-25T09:08:20.604Z,27.35
2022-08-25T09:11:02.627Z,27.38
2022-08-25T09:13:46.950Z,27.34
2022-08-25T09:16:43.743Z,27.47
2022-08-25T09:19:32.769Z,27.48
2022-08-25T09:22:36.018Z,27.49
2022-08-25T09:25:08.686Z,27.58
2022-08-25T09:27:48.331Z,27.51
2022-08-25T09:30:21.012Z,27.50
2022-08-25T09:33:03.839Z,27.51
2022-08-25T09:35:40.781Z,27.49
2022-08-25T09:38:13.855Z,27.37
2022-08-25T09:40:47.370Z,27.27
2022-08-25T09:43:25.499Z,27.22
2022-08-25T09:46:02.783Z,27.15
2022-08-25T09:48:39.789Z,27.05
2022-08-25T09:51:21.979Z,27.02
2022-08-25T09:53:58.131Z,27.02
2022-08-25T09:56:32.212Z,27.16
2022-08-25T09:59:34.590Z,27.26
2022-08-25T10:02:23.680Z,27.40
2022-08-25T10:04:54.541Z,27.63
2022-08-25T10:07:29.946Z,27.89
2022-08-25T10:10:03.350Z,28.10
2022-08-25T10:12:42.550Z,28.19
2022-08-25T10:15:29.043Z,28.06
2022-08-25T10:18:23.466Z,27.99
2022-08-25T10:21:09.410Z,27.83
2022-08-25T10:23:47.371Z,27.71
2022-08-25T10:26:34.916Z,27.60
2022-08-25T10:29:18.897Z,27.53
2022-08-25T10:31:59.388Z,27.55
2022-08-25T10:34:44.692Z,27.65
2022-08-25T10:37:25.325Z,27.55
2022-08-25T10:40:04.329Z,27.42
2022-08-25T10:42:42.741Z,27.36
2022-08-25T10:45:39.230Z,27.32
2022-08-25T10:48:34.117Z,27.40
2022-08-25T10:51:18.676Z,27.52
2022-08-25T10:53:58.347Z,27.76
2022-08-25T10:56:34.421Z,27.89
2022-08-25T10:59:29.829Z,27.83
2022-08-25T11:02:42.326Z,27.73
2022-08-25T11:05:24.537Z,27.76
2022-08-25T11:08:02.432Z,27.95
2022-08-25T11:10:42.159Z,28.05
2022-08-25T11:13:22.154Z,28.10
2022-08-25T11:16:17.441Z,28.11
2022-08-25T11:18:55.363Z,28.15
2022-08-25T11:21:35.885Z,28.22
2022-08-25T11:24:19.803Z,28.25
2022-08-25T11:26:54.975Z,28.25
2022-08-25T11:29:33.604Z,28.31
2022-08-25T11:32:05.743Z,28.46
2022-08-25T11:34:42.996Z,28.53
2022-08-25T11:37:25.544Z,28.62
2022-08-25T11:40:25.666Z,28.64
2022-08-25T11:43:08.263Z,28.61
2022-08-25T11:45:55.732Z,28.47
2022-08-25T11:48:36.477Z,28.29
2022-08-25T11:51:09.951Z,28.17
2022-08-25T11:53:42.777Z,28.04
2022-08-25T11:56:31.652Z,27.98
2022-08-25T11:59:04.416Z,28.04
2022-08-25T12:02:05.378Z,28.13
2022-08-25T12:04:44.738Z,28.23
2022-08-25T12:08:13.338Z,28.22
2022-08-25T12:11:10.573Z,28.32
2022-08-25T12:13:48.285Z,28.40
2022-08-25T12:16:41.984Z,28.48
2022-08-25T12:19:49.215Z,28.56
2022-08-25T12:23:01.404Z,28.63
2022-08-25T12:25:54.845Z,28.68
2022-08-25T12:28:43.464Z,28.75
2022-08-25T12:31:40.534Z,28.75
2022-08-25T12:34:24.338Z,28.65
2022-08-25T12:37:06.443Z,28.63
2022-08-25T12:39:44.427Z,28.65
2022-08-25T12:42:31.327Z,28.69
2022-08-25T12:45:33.425Z,28.76
2022-08-25T12:48:35.283Z,28.82
2022-08-25T12:51:09.714Z,28.91
2022-08-25T12:53:42.740Z,28.96
2022-08-25T12:56:30.519Z,29.00
2022-08-25T12:59:13.089Z,29.04
2022-08-25T13:02:09.252Z,29.03
2022-08-25T13:05:07.247Z,28.98
2022-08-25T13:07:59.758Z,29.00
2022-08-25T13:10:47.554Z,29.07
2022-08-25T13:13:37.885Z,29.09
2022-08-25T13:16:18.041Z,29.10
2022-08-25T13:18:51.449Z,29.00
2022-08-25T13:21:29.121Z,28.87
2022-08-25T13:24:05.593Z,28.76
2022-08-25T13:26:48.290Z,28.66
2022-08-25T13:29:24.456Z,28.57
2022-08-25T13:31:58.616Z,28.46
2022-08-25T13:34:35.228Z,28.42
2022-08-25T13:37:29.516Z,28.38
2022-08-25T13:40:17.791Z,28.30
2022-08-25T13:42:55.868Z,28.22
2022-08-25T13:45:29.962Z,28.15
2022-08-25T13:48:00.785Z,28.09
2022-08-25T13:50:37.857Z,28.02
2022-08-25T13:53:12.867Z,27.97
2022-08-25T13:55:54.816Z,27.92
2022-08-25T13:58:39.664Z,27.88
2022-08-25T14:01:22.707Z,27.86
2022-08-25T14:04:31.831Z,27.84
2022-08-25T14:07:25.457Z,27.83
2022-08-25T14:09:58.952Z,27.81
2022-08-25T14:12:40.154Z,27.83
2022-08-25T14:15:29.562Z,27.92
2022-08-25T14:18:10.240Z,27.96
2022-08-25T14:20:50.551Z,27.95
2022-08-25T14:23:24.227Z,27.94
2022-08-25T14:25:56.708Z,27.92
2022-08-25T14:28:29.391Z,27.91
2022-08-25T14:31:06.750Z,27.89
2022-08-25T14:33:42.289Z,27.91
2022-08-25T14:36:14.495Z,27.95
2022-08-25T14:38:55.029Z,28.00
2022-08-25T14:41:27.633Z,28.04
2022-08-25T14:43:58.344Z,28.05
2022-08-25T14:46:32.048Z,28.05
2022-08-25T14:49:05.751Z,28.02
2022-08-25T14:51:39.738Z,28.02
2022-08-25T14:54:15.214Z,28.04
2022-08-25T14:56:48.516Z,28.06
2022-08-25T14:59:19.875Z,28.08
2022-08-25T15:01:50.808Z,28.11
2022-08-25T15:04:23.645Z,28.13
2022-08-25T15:07:00.175Z,28.13
2022-08-25T15:09:33.633Z,28.12
2022-08-25T15:12:05.058Z,28.13
2022-08-25T15:14:36.767Z,28.13
2022-08-25T15:17:08.891Z,28.11
2022-08-25T15:19:40.618Z,28.07
2022-08-25T15:22:11.968Z,27.99
2022-08-25T15:24:43.013Z,27.92
2022-08-25T15:27:15.187Z,27.87
2022-08-25T15:29:45.944Z,27.81
2022-08-25T15:32:18.588Z,27.77
2022-08-25T15:34:55.086Z,27.74
2022-08-25T15:37:25.941Z,27.72
2022-08-25T15:39:56.932Z,27.71
2022-08-25T15:42:29.027Z,27.68
2022-08-25T15:44:59.741Z,27.64
2022-08-25T15:47:32.335Z,27.59
2022-08-25T15:50:07.598Z,27.53
2022-08-25T15:52:46.555Z,27.48
2022-08-25T15:55:19.982Z,27.41
2022-08-25T15:57:50.902Z,27.35
2022-08-25T16:00:41.964Z,27.31
2022-08-25T16:03:13.971Z,27.27
2022-08-25T16:05:48.585Z,27.22
2022-08-25T16:08:19.898Z,27.18
2022-08-25T16:10:50.702Z,27.13
2022-08-25T16:13:23.042Z,27.10
2022-08-25T16:15:55.085Z,27.09
2022-08-25T16:18:27.048Z,27.07
2022-08-25T16:20:58.192Z,27.06
2022-08-25T16:23:29.144Z,27.04
2022-08-25T16:25:59.862Z,27.03
2022-08-25T16:28:30.042Z,26.99
2022-08-25T16:31:02.031Z,26.93
2022-08-25T16:33:33.799Z,26.89
2022-08-25T16:36:10.290Z,26.85
2022-08-25T16:38:42.587Z,26.83
2022-08-25T16:41:22.331Z,26.81
2022-08-25T16:43:54.005Z,26.78
2022-08-25T16:46:24.196Z,26.76
2022-08-25T16:48:55.167Z,26.74
2022-08-25T16:51:29.844Z,26.70
2022-08-25T16:54:22.256Z,26.66
2022-08-25T16:56:55.099Z,26.62
2022-08-25T16:59:26.863Z,26.58
2022-08-25T17:01:57.788Z,26.55
2022-08-25T17:04:32.277Z,26.52
2022-08-25T17:07:03.447Z,26.47
2022-08-25T17:09:36.336Z,26.43
2022-08-25T17:12:09.253Z,26.40
2022-08-25T17:14:39.962Z,26.37
2022-08-25T17:17:12.042Z,26.33
2022-08-25T17:19:45.851Z,26.30
2022-08-25T17:22:17.331Z,26.25
2022-08-25T17:24:59.138Z,26.21
2022-08-25T17:27:30.592Z,26.17
2022-08-25T17:30:01.590Z,26.12
2022-08-25T17:32:33.017Z,26.09
2022-08-25T17:35:04.483Z,26.05
2022-08-25T17:37:37.822Z,25.98
2022-08-25T17:40:11.079Z,25.97
2022-08-25T17:42:41.963Z,25.94
2022-08-25T17:45:14.362Z,25.89
2022-08-25T17:47:45.062Z,25.84
2022-08-25T17:50:15.684Z,25.79
2022-08-25T17:52:47.621Z,25.76
2022-08-25T17:55:21.604Z,25.72
2022-08-25T17:57:52.970Z,25.68
2022-08-25T18:00:25.284Z,25.65
2022-08-25T18:02:54.460Z,25.61
2022-08-25T18:05:26.456Z,25.59
2022-08-25T18:07:58.830Z,25.57
2022-08-25T18:10:29.702Z,25.57
2022-08-25T18:13:02.181Z,25.55
2022-08-25T18:15:34.397Z,25.54
2022-08-25T18:18:05.496Z,25.51
2022-08-25T18:20:36.916Z,25.45
2022-08-25T18:23:09.916Z,25.41
2022-08-25T18:25:41.816Z,25.37
2022-08-25T18:28:13.779Z,25.34
2022-08-25T18:30:45.078Z,25.28
2022-08-25T18:33:16.163Z,25.20
2022-08-25T18:35:47.310Z,25.13
2022-08-25T18:38:37.468Z,25.10
2022-08-25T18:41:11.039Z,25.07
2022-08-25T18:43:42.738Z,25.09
2022-08-25T18:46:14.021Z,25.09
2022-08-25T18:48:46.542Z,25.10
2022-08-25T18:51:18.203Z,25.07
2022-08-25T18:54:00.851Z,25.02
2022-08-25T18:56:31.995Z,24.97
2022-08-25T18:59:04.059Z,24.92
2022-08-25T19:01:35.503Z,24.89
2022-08-25T19:04:06.906Z,24.86
2022-08-25T19:06:38.122Z,24.85
2022-08-25T19:09:08.762Z,24.86
2022-08-25T19:11:39.807Z,24.88
2022-08-25T19:14:12.634Z,24.88
2022-08-25T19:16:45.524Z,24.87
2022-08-25T19:19:16.355Z,24.86
2022-08-25T19:21:47.234Z,24.82
2022-08-25T19:24:19.975Z,24.78
2022-08-25T19:26:54.507Z,24.74
2022-08-25T19:29:30.333Z,24.68
2022-08-25T19:32:02.482Z,24.62
2022-08-25T19:34:34.917Z,24.57
2022-08-25T19:37:07.731Z,24.54
2022-08-25T19:39:41.917Z,24.52
2022-08-25T19:42:35.015Z,24.49
2022-08-25T19:45:08.619Z,24.44
2022-08-25T19:47:41.366Z,24.39
2022-08-25T19:50:16.741Z,24.33
2022-08-25T19:52:49.932Z,24.28
2022-08-25T19:55:21.922Z,24.22
2022-08-25T19:57:53.243Z,24.16
2022-08-25T20:00:29.905Z,24.11
2022-08-25T20:03:01.400Z,24.10
2022-08-25T20:05:32.892Z,24.09
2022-08-25T20:08:05.465Z,24.09
2022-08-25T20:10:41.864Z,24.07
2022-08-25T20:13:12.850Z,24.05
2022-08-25T20:15:47.901Z,24.02
2022-08-25T20:18:18.673Z,23.99
2022-08-25T20:20:50.324Z,23.99
2022-08-25T20:23:38.442Z,23.99
2022-08-25T20:26:10.835Z,23.97
2022-08-25T20:28:42.205Z,23.95
2022-08-25T20:31:16.001Z,23.89
2022-08-25T20:33:46.935Z,23.83
2022-08-25T20:36:20.079Z,23.80
2022-08-25T20:38:51.464Z,23.79
2022-08-25T20:41:22.346Z,23.77
2022-08-25T20:43:53.278Z,23.75
2022-08-25T20:46:34.864Z,23.72
2022-08-25T20:49:08.922Z,23.71
2022-08-25T20:51:40.330Z,23.69
2022-08-25T20:54:15.410Z,23.68
2022-08-25T20:56:46.463Z,23.64
2022-08-25T20:59:18.201Z,23.61
2022-08-25T21:01:50.551Z,23.59
2022-08-25T21:04:24.521Z,23.59
2022-08-25T21:06:55.617Z,23.58
2022-08-25T21:09:28.115Z,23.59
2022-08-25T21:12:01.416Z,23.61
2022-08-25T21:14:32.351Z,23.63
2022-08-25T21:17:04.377Z,23.65
2022-08-25T21:19:35.845Z,23.63
2022-08-25T21:22:07.531Z,23.61
2022-08-25T21:24:38.603Z,23.56
2022-08-25T21:27:09.502Z,23.52
2022-08-25T21:29:44.550Z,23.48
2022-08-25T21:32:26.126Z,23.48
2022-08-25T21:34:58.382Z,23.50
2022-08-25T21:37:29.435Z,23.51
2022-08-25T21:40:00.323Z,23.48
2022-08-25T21:42:31.186Z,23.44
2022-08-25T21:45:02.041Z,23.43
2022-08-25T21:47:33.536Z,23.41
2022-08-25T21:50:06.172Z,23.39
2022-08-25T21:52:37.443Z,23.40
2022-08-25T21:55:15.825Z,23.42
2022-08-25T21:57:46.970Z,23.43
2022-08-25T22:00:18.860Z,23.44
2022-08-25T22:02:52.913Z,23.43
2022-08-25T22:05:23.754Z,23.43
2022-08-25T22:07:54.642Z,23.46
2022-08-25T22:10:26.218Z,23.49
2022-08-25T22:12:57.274Z,23.51
2022-08-25T22:15:28.606Z,23.48
2022-08-25T22:17:59.329Z,23.44
2022-08-25T22:20:31.779Z,23.41
2022-08-25T22:23:02.506Z,23.39
2022-08-25T22:25:33.342Z,23.39
2022-08-25T22:28:04.722Z,23.41
2022-08-25T22:30:36.891Z,23.43
2022-08-25T22:33:09.063Z,23.44
2022-08-25T22:35:39.931Z,23.44
2022-08-25T22:38:12.308Z,23.44
2022-08-25T22:40:43.621Z,23.41
2022-08-25T22:43:14.558Z,23.40
2022-08-25T22:45:45.450Z,23.41
2022-08-25T22:48:16.306Z,23.45
2022-08-25T22:50:47.193Z,23.45
2022-08-25T22:53:18.502Z,23.42
2022-08-25T22:55:49.438Z,23.39
2022-08-25T22:58:23.073Z,23.31
2022-08-25T23:00:53.837Z,23.25
2022-08-25T23:03:24.950Z,23.26
2022-08-25T23:05:56.486Z,23.25
2022-08-25T23:08:39.145Z,23.23
2022-08-25T23:11:13.990Z,23.19
2022-08-25T23:13:45.670Z,23.17
2022-08-25T23:16:16.872Z,23.14
2022-08-25T23:18:48.064Z,23.11
2022-08-25T23:21:40.764Z,23.09
2022-08-25T23:24:13.454Z,23.08
2022-08-25T23:26:45.269Z,23.09
2022-08-25T23:29:21.822Z,23.11
2022-08-25T23:31:53.681Z,23.11
2022-08-25T23:34:25.643Z,23.15
2022-08-25T23:36:56.908Z,23.19
2022-08-25T23:39:28.527Z,23.20
2022-08-25T23:41:59.312Z,23.20
2022-08-25T23:44:30.747Z,23.22
2022-08-25T23:47:01.483Z,23.23
2022-08-25T23:49:32.672Z,23.24
2022-08-25T23:52:05.270Z,23.25
2022-08-25T23:54:36.130Z,23.28
2022-08-25T23:57:07.506Z,23.29
2022-08-25T23:59:39.841Z,23.28
